createdAt,value
2023-01-17T07:30:43.410Z,83.37
2023-01-17T07:31:44.454Z,83.16
2023-01-17T07:32:44.141Z,82.50
2023-01-17T07:33:44.108Z,81.40
2023-01-17T07:34:44.167Z,80.88
2023-01-17T07:35:44.096Z,79.85
2023-01-17T07:36:44.188Z,79.74
2023-01-17T07:37:44.059Z,79.85
2023-01-17T07:38:44.096Z,79.44
2023-01-17T07:39:44.117Z,79.23
2023-01-17T07:40:44.079Z,79.23
2023-01-17T07:41:44.049Z,78.50
2023-01-17T07:42:44.039Z,78.71
2023-01-17T07:43:44.055Z,77.88
2023-01-17T07:44:44.136Z,79.02
2023-01-17T07:45:44.014Z,79.95
2023-01-17T07:46:44.011Z,79.02
2023-01-17T07:47:44.027Z,77.78
2023-01-17T07:48:44.034Z,76.95
2023-01-17T07:49:43.962Z,76.95
2023-01-17T07:50:43.979Z,77.40
2023-01-17T07:51:43.920Z,77.88
2023-01-17T07:52:43.941Z,76.53
2023-01-17T07:53:44.228Z,75.95
2023-01-17T07:54:43.900Z,76.02
2023-01-17T07:55:43.957Z,76.53
2023-01-17T07:56:43.899Z,77.26
2023-01-17T07:57:43.874Z,78.19
2023-01-17T07:58:43.844Z,79.13
2023-01-17T07:59:43.901Z,79.44
2023-01-17T08:00:43.938Z,77.71
2023-01-17T08:01:43.907Z,76.84
2023-01-17T08:02:43.800Z,77.36
2023-01-17T08:03:43.873Z,77.88
2023-01-17T08:04:43.781Z,78.50
2023-01-17T08:05:43.766Z,79.54
2023-01-17T08:06:43.786Z,80.68
2023-01-17T08:07:43.723Z,79.23
2023-01-17T08:08:43.751Z,78.71
2023-01-17T08:09:43.758Z,79.54
2023-01-17T08:10:43.700Z,80.33
2023-01-17T08:11:43.703Z,80.54
2023-01-17T08:12:43.734Z,80.85
2023-01-17T08:13:43.708Z,81.37
2023-01-17T08:14:43.683Z,81.26
2023-01-17T08:15:43.649Z,81.57
2023-01-17T08:16:43.705Z,81.99
2023-01-17T08:17:43.635Z,81.74
2023-01-17T08:18:43.659Z,81.54
2023-01-17T08:19:43.618Z,81.33
2023-01-17T08:20:43.620Z,81.23
2023-01-17T08:21:43.679Z,81.54
2023-01-17T08:22:43.578Z,80.91
2023-01-17T08:23:43.558Z,80.19
2023-01-17T08:24:43.634Z,79.67
2023-01-17T08:25:43.593Z,79.98
2023-01-17T08:26:43.538Z,79.57
2023-01-17T08:27:43.544Z,78.64
2023-01-17T08:28:43.545Z,75.84
2023-01-17T08:29:43.524Z,72.74
2023-01-17T08:30:46.167Z,71.50
2023-01-17T08:31:43.591Z,72.22
2023-01-17T08:32:43.459Z,73.36
2023-01-17T08:33:43.454Z,74.29
2023-01-17T08:34:43.438Z,74.50
2023-01-17T08:35:43.450Z,74.08
2023-01-17T08:36:43.444Z,73.36
2023-01-17T08:37:43.436Z,72.12
2023-01-17T08:38:43.470Z,71.50
2023-01-17T08:39:43.402Z,70.98
2023-01-17T08:40:43.445Z,68.22
2023-01-17T08:41:43.494Z,67.25
2023-01-17T08:42:43.347Z,66.02
2023-01-17T08:43:43.361Z,66.12
2023-01-17T08:44:43.404Z,66.32
2023-01-17T08:45:43.357Z,64.95
2023-01-17T08:46:43.450Z,63.71
2023-01-17T08:47:43.291Z,62.26
2023-01-17T08:48:43.349Z,60.50
2023-01-17T08:49:43.280Z,59.88
2023-01-17T08:50:43.279Z,60.60
2023-01-17T08:51:43.333Z,62.13
2023-01-17T08:52:43.237Z,63.50
2023-01-17T08:53:43.258Z,64.43
2023-01-17T08:54:43.214Z,66.71
2023-01-17T08:55:43.256Z,68.77
2023-01-17T08:56:43.268Z,69.92
2023-01-17T08:57:43.320Z,70.77
2023-01-17T08:58:43.232Z,70.47
2023-01-17T08:59:43.288Z,70.29
2023-01-17T09:00:43.403Z,71.53
2023-01-17T09:01:43.285Z,72.46
2023-01-17T09:02:43.979Z,71.43
2023-01-17T09:03:43.151Z,71.53
2023-01-17T09:04:43.114Z,71.22
2023-01-17T09:05:43.187Z,69.90
2023-01-17T09:06:43.110Z,69.15
2023-01-17T09:07:43.192Z,68.53
2023-01-17T09:08:44.354Z,69.32
2023-01-17T09:09:43.166Z,69.84
2023-01-17T09:10:43.123Z,70.05
2023-01-17T09:11:43.064Z,68.80
2023-01-17T09:12:43.083Z,67.77
2023-01-17T09:13:43.657Z,67.98
2023-01-17T09:14:43.051Z,67.95
2023-01-17T09:15:43.089Z,68.26
2023-01-17T09:16:43.046Z,68.98
2023-01-17T09:17:42.975Z,69.81
2023-01-17T09:18:42.939Z,71.22
2023-01-17T09:19:42.942Z,72.60
2023-01-17T09:20:42.961Z,73.77
2023-01-17T09:21:42.975Z,74.67
2023-01-17T09:22:43.256Z,75.84
2023-01-17T09:23:42.944Z,77.39
2023-01-17T09:24:43.009Z,78.74
2023-01-17T09:25:42.929Z,79.60
2023-01-17T09:26:42.866Z,80.54
2023-01-17T09:27:42.936Z,81.37
2023-01-17T09:28:43.865Z,81.78
2023-01-17T09:29:43.537Z,82.40
2023-01-17T09:30:43.939Z,82.19
2023-01-17T09:31:42.890Z,81.99
2023-01-17T09:32:42.802Z,81.84
2023-01-17T09:33:42.816Z,81.64
2023-01-17T09:34:42.762Z,81.39
2023-01-17T09:35:42.767Z,80.63
2023-01-17T09:36:43.026Z,80.43
2023-01-17T09:37:42.802Z,81.15
2023-01-17T09:38:43.632Z,81.84
2023-01-17T09:39:43.950Z,83.02
2023-01-17T09:40:42.981Z,85.27
2023-01-17T09:41:43.938Z,87.18
2023-01-17T09:42:43.412Z,87.84
2023-01-17T09:43:45.645Z,87.99
2023-01-17T09:47:07.395Z,86.49
2023-01-17T09:48:06.836Z,84.94
2023-01-17T09:49:06.865Z,84.59
2023-01-17T09:50:06.096Z,82.20
2023-01-17T09:51:06.427Z,79.41
2023-01-17T09:52:06.109Z,79.92
2023-01-17T09:53:06.855Z,79.41
2023-01-17T09:54:06.035Z,78.47
2023-01-17T09:55:07.962Z,78.58
2023-01-17T09:56:06.030Z,78.89
2023-01-17T09:57:06.162Z,79.10
2023-01-17T09:58:06.118Z,76.61
2023-01-17T09:59:06.953Z,73.46
2023-01-17T10:00:06.436Z,70.36
2023-01-17T10:01:06.202Z,69.49
2023-01-17T10:02:06.327Z,70.42
2023-01-17T10:03:06.130Z,71.04
2023-01-17T10:04:07.467Z,70.42
2023-01-17T10:05:06.846Z,70.94
2023-01-17T10:06:06.499Z,71.46
2023-01-17T10:07:05.894Z,70.53
2023-01-17T10:08:05.930Z,70.94
2023-01-17T10:09:06.066Z,74.15
2023-01-17T10:10:05.874Z,78.50
2023-01-17T10:11:07.340Z,80.92
2023-01-17T10:12:05.883Z,81.34
2023-01-17T10:13:07.280Z,81.02
2023-01-17T10:14:06.926Z,80.19
2023-01-17T10:15:07.332Z,82.23
2023-01-17T10:16:06.337Z,83.68
2023-01-17T10:17:06.732Z,84.78
2023-01-17T10:18:05.904Z,84.27
2023-01-17T10:19:12.349Z,85.19
2023-01-17T10:20:06.805Z,85.82
2023-01-17T10:21:05.714Z,85.75
2023-01-17T10:22:05.727Z,86.33
2023-01-17T10:23:06.343Z,85.96
2023-01-17T10:24:06.951Z,86.58
2023-01-17T10:25:06.367Z,87.10
2023-01-17T10:26:05.686Z,86.99
2023-01-17T10:27:06.839Z,87.30
2023-01-17T10:28:09.470Z,87.66
2023-01-17T10:29:06.300Z,87.24
2023-01-17T10:30:05.679Z,87.55
2023-01-17T10:31:05.721Z,87.59
2023-01-17T10:32:05.600Z,86.87
2023-01-17T10:33:07.202Z,87.43
2023-01-17T10:34:05.645Z,88.53
2023-01-17T10:35:05.667Z,89.67
2023-01-17T10:36:05.942Z,89.77
2023-01-17T10:37:05.502Z,89.15
2023-01-17T10:38:05.579Z,89.19
2023-01-17T10:39:06.407Z,88.57
2023-01-17T10:40:08.054Z,86.91
2023-01-17T10:41:05.761Z,86.04
2023-01-17T10:42:05.852Z,85.63
2023-01-17T10:43:05.585Z,85.83
2023-01-17T10:44:09.345Z,85.17
2023-01-17T10:45:05.523Z,85.17
2023-01-17T10:46:05.668Z,85.79
2023-01-17T10:47:06.355Z,85.69
2023-01-17T10:48:07.622Z,85.58
2023-01-17T10:49:05.459Z,85.69
2023-01-17T10:50:07.425Z,86.37
2023-01-17T10:51:06.378Z,85.96
2023-01-17T10:54:05.648Z,85.19
2023-01-17T10:55:18.213Z,84.78
2023-01-17T10:56:06.285Z,84.58
2023-01-17T10:57:05.233Z,85.40
2023-01-17T10:58:03.604Z,84.99
2023-01-17T10:59:05.206Z,84.53
2023-01-17T11:00:04.247Z,83.50
2023-01-17T11:01:03.576Z,84.01
2023-01-17T11:02:03.434Z,82.46
2023-01-17T11:03:03.530Z,82.95
2023-01-17T11:04:03.346Z,82.84
2023-01-17T11:05:04.215Z,82.90
2023-01-17T11:06:04.160Z,82.39
2023-01-17T11:07:04.147Z,81.70
2023-01-17T11:08:03.420Z,83.11
2023-01-17T11:09:03.352Z,82.08
2023-01-17T11:10:03.352Z,81.98
2023-01-17T11:11:04.135Z,83.01
2023-01-17T11:12:03.616Z,82.18
2023-01-17T11:13:04.775Z,80.94
2023-01-17T11:14:03.974Z,75.29
2023-01-17T11:15:04.046Z,72.50
2023-01-17T11:16:03.394Z,72.19
2023-01-17T11:17:03.246Z,71.70
2023-01-17T11:18:04.823Z,72.22
2023-01-17T11:19:03.213Z,72.91
2023-01-17T11:20:04.208Z,73.91
2023-01-17T11:21:03.287Z,71.95
2023-01-17T11:22:04.016Z,72.47
2023-01-17T11:23:03.330Z,72.12
2023-01-17T11:24:03.847Z,73.85
2023-01-17T11:25:03.142Z,77.32
2023-01-17T11:26:03.685Z,79.69
2023-01-17T11:27:03.784Z,80.93
2023-01-17T11:28:03.796Z,83.04
2023-01-17T11:29:04.059Z,83.62
2023-01-17T11:30:09.307Z,83.70
2023-01-17T11:31:03.072Z,84.08
2023-01-17T11:32:03.031Z,85.05
2023-01-17T11:33:03.037Z,85.47
2023-01-17T11:34:03.048Z,85.30
2023-01-17T11:35:02.966Z,86.02
2023-01-17T11:36:02.963Z,86.54
2023-01-17T11:37:02.974Z,87.20
2023-01-17T11:38:03.190Z,87.62
2023-01-17T11:39:03.025Z,87.51
2023-01-17T11:40:02.969Z,86.58
2023-01-17T11:41:02.941Z,85.65
2023-01-17T11:42:06.477Z,85.65
2023-01-17T11:43:02.898Z,84.72
2023-01-17T11:44:02.985Z,79.91
2023-01-17T11:45:02.861Z,76.19
2023-01-17T11:46:02.929Z,75.88
2023-01-17T11:47:02.847Z,76.40
2023-01-17T11:48:02.853Z,76.29
2023-01-17T11:49:02.849Z,77.33
2023-01-17T11:50:02.826Z,79.19
2023-01-17T11:51:02.798Z,78.67
2023-01-17T11:52:02.798Z,76.12
2023-01-17T11:53:02.772Z,72.81
2023-01-17T11:54:02.822Z,72.81
2023-01-17T11:55:02.765Z,73.63
2023-01-17T11:56:02.828Z,74.05
2023-01-17T11:57:02.799Z,74.95
2023-01-17T11:58:02.722Z,75.09
2023-01-17T11:59:02.766Z,74.95
2023-01-17T12:00:02.704Z,78.98
2023-01-17T12:01:02.719Z,82.18
2023-01-17T12:02:02.771Z,84.25
2023-01-17T12:03:02.652Z,83.84
2023-01-17T12:04:02.800Z,84.50
2023-01-17T12:05:02.701Z,84.91
2023-01-17T12:06:02.675Z,84.70
2023-01-17T12:07:02.652Z,84.70
2023-01-17T12:08:02.649Z,85.11
2023-01-17T12:09:02.681Z,85.74
2023-01-17T12:10:02.593Z,84.87
2023-01-17T12:11:02.575Z,85.02
2023-01-17T12:12:04.382Z,84.70
2023-01-17T12:13:02.558Z,84.50
2023-01-17T12:14:02.556Z,82.43
2023-01-17T12:15:02.564Z,80.88
2023-01-17T12:16:02.616Z,79.43
2023-01-17T12:17:02.508Z,79.05
2023-01-17T12:18:02.542Z,78.74
2023-01-17T12:19:03.111Z,79.02
2023-01-17T12:20:02.502Z,78.50
2023-01-17T12:21:02.477Z,79.12
2023-01-17T12:22:02.480Z,78.91
2023-01-17T12:23:02.431Z,78.39
2023-01-17T12:24:02.478Z,78.81
2023-01-17T12:25:02.414Z,78.74
2023-01-17T12:26:02.456Z,78.19
2023-01-17T12:27:02.409Z,78.39
2023-01-17T12:28:02.416Z,77.60
2023-01-17T12:29:02.360Z,77.50
2023-01-17T12:30:02.459Z,77.87
2023-01-17T12:31:02.441Z,78.70
2023-01-17T12:32:02.418Z,78.08
2023-01-17T12:33:02.367Z,74.84
2023-01-17T12:34:02.358Z,72.57
2023-01-17T12:35:02.335Z,72.64
2023-01-17T12:36:02.596Z,71.50
2023-01-17T12:37:02.320Z,72.43
2023-01-17T12:38:05.181Z,72.22
2023-01-17T12:39:02.329Z,72.85
2023-01-17T12:40:02.267Z,73.95
2023-01-17T12:41:02.245Z,72.91
2023-01-17T12:42:02.242Z,72.91
2023-01-17T12:43:02.257Z,73.74
2023-01-17T12:44:02.206Z,74.46
2023-01-17T12:45:02.248Z,76.64
2023-01-17T12:46:03.229Z,76.32
2023-01-17T12:47:02.183Z,77.46
2023-01-17T12:48:06.293Z,80.25
2023-01-17T12:49:02.220Z,82.10
2023-01-17T12:50:02.163Z,81.01
2023-01-17T20:02:36.138Z,85.82
2023-01-17T20:03:37.076Z,86.86
2023-01-17T20:04:37.045Z,86.24
2023-01-17T20:05:37.724Z,86.24
2023-01-17T20:06:37.088Z,86.44
2023-01-17T20:07:37.079Z,85.82
2023-01-17T20:08:38.791Z,86.13
2023-01-17T20:09:37.278Z,86.34
2023-01-17T20:10:38.167Z,86.13
2023-01-17T20:11:37.044Z,86.34
2023-01-17T20:12:36.944Z,86.96
2023-01-17T20:13:37.519Z,86.44
2023-01-17T20:14:36.947Z,86.65
2023-01-17T20:15:37.022Z,86.34
2023-01-17T20:16:36.924Z,86.34
2023-01-17T20:17:37.062Z,86.03
2023-01-17T20:18:36.854Z,86.38
2023-01-17T20:19:37.156Z,87.52
2023-01-17T20:20:48.918Z,87.21
2023-01-17T20:21:37.417Z,88.04
2023-01-17T20:22:36.971Z,87.84
2023-01-17T20:23:36.896Z,87.32
2023-01-17T20:24:37.077Z,88.04
2023-01-17T20:25:37.136Z,87.94
2023-01-17T20:26:37.974Z,87.94
2023-01-17T20:27:36.840Z,87.98
2023-01-17T20:28:36.741Z,87.42
2023-01-17T20:29:37.111Z,87.52
2023-01-17T20:30:36.737Z,87.84
2023-01-17T20:31:36.772Z,88.25
2023-01-17T20:32:43.048Z,87.11
2023-01-17T20:33:37.684Z,87.42
2023-01-17T20:34:37.324Z,87.84
2023-01-17T20:35:37.044Z,87.42
2023-01-17T20:36:36.858Z,87.84
2023-01-17T20:37:36.874Z,87.73
2023-01-17T20:38:36.736Z,87.73
2023-01-17T20:39:36.730Z,87.66
2023-01-17T20:40:36.861Z,87.04
2023-01-17T20:41:36.622Z,87.15
2023-01-17T20:42:36.875Z,87.66
2023-01-17T20:43:36.946Z,87.35
2023-01-17T20:44:36.805Z,86.63
2023-01-17T20:45:36.663Z,86.32
2023-01-17T20:46:39.532Z,86.90
2023-01-17T20:47:36.571Z,87.21
2023-01-17T20:48:36.591Z,87.01
2023-01-17T20:49:36.690Z,86.69
2023-01-17T20:50:36.512Z,86.80
2023-01-17T20:51:37.629Z,87.11
2023-01-17T20:52:36.572Z,87.42
2023-01-17T20:53:36.604Z,87.46
2023-01-17T20:54:37.542Z,87.66
2023-01-17T20:55:37.117Z,87.56
2023-01-17T20:56:36.500Z,87.66
2023-01-17T20:57:36.598Z,87.66
2023-01-17T20:58:36.645Z,87.46
2023-01-17T20:59:36.633Z,87.66
2023-01-17T21:00:36.403Z,87.66
2023-01-17T21:02:47.343Z,87.04
2023-01-17T21:03:47.871Z,87.56
2023-01-17T21:04:48.630Z,87.77
2023-01-17T21:05:48.141Z,87.56
2023-01-17T21:06:48.073Z,87.56
2023-01-17T21:07:47.930Z,87.56
2023-01-17T21:08:49.208Z,87.88
2023-01-17T21:09:48.643Z,87.46
2023-01-17T21:10:48.099Z,87.88
2023-01-17T21:11:47.901Z,87.77
2023-01-17T21:12:48.493Z,87.66
2023-01-17T21:13:48.107Z,88.09
2023-01-17T21:14:47.866Z,87.77
2023-01-17T21:15:48.814Z,88.29
2023-01-17T21:16:49.218Z,88.29
2023-01-17T21:17:49.212Z,88.60
2023-01-17T21:18:48.084Z,88.60
2023-01-17T21:19:47.911Z,88.19
2023-01-17T21:20:47.989Z,88.40
2023-01-17T21:21:49.252Z,88.60
2023-01-17T21:22:50.535Z,88.71
2023-01-17T21:23:48.854Z,88.19
2023-01-17T21:24:51.046Z,88.19
2023-01-17T21:25:55.566Z,88.50
2023-01-17T21:26:49.963Z,88.40
2023-01-17T21:27:47.694Z,88.50
2023-01-17T21:28:47.856Z,88.60
2023-01-17T21:29:47.748Z,88.81
2023-01-17T21:30:48.462Z,88.81
2023-01-17T21:31:48.167Z,88.92
2023-01-17T21:32:47.892Z,89.12
2023-01-17T21:33:47.834Z,89.54
2023-01-17T21:34:48.635Z,89.85
2023-01-17T21:35:47.798Z,89.75
2023-01-17T21:36:53.013Z,89.54
2023-01-17T21:37:47.710Z,89.33
2023-01-17T21:38:50.253Z,88.81
2023-01-17T21:39:47.625Z,89.12
2023-01-17T21:40:47.558Z,89.33
2023-01-17T21:41:47.653Z,89.81
2023-01-17T21:42:47.609Z,89.33
2023-01-17T21:43:47.628Z,88.71
2023-01-17T21:44:47.741Z,88.19
2023-01-17T21:45:48.583Z,88.67
2023-01-17T21:46:47.480Z,88.60
2023-01-17T21:47:47.934Z,88.67
2023-01-17T21:48:48.127Z,88.87
2023-01-17T21:49:47.347Z,89.12
2023-01-17T21:50:47.440Z,89.33
2023-01-17T21:51:47.310Z,89.33
2023-01-17T21:52:47.351Z,88.98
2023-01-17T21:53:47.264Z,87.73
2023-01-17T21:54:47.290Z,87.42
2023-01-17T21:55:47.997Z,87.84
2023-01-17T21:56:47.279Z,88.98
2023-01-17T21:57:47.278Z,89.18
2023-01-17T21:58:47.254Z,89.95
2023-01-17T21:59:47.997Z,89.64
2023-01-17T22:00:47.416Z,89.75
2023-01-17T22:01:47.365Z,89.75
2023-01-17T22:02:47.247Z,89.75
2023-01-17T22:03:47.150Z,89.75
2023-01-17T22:04:47.149Z,89.81
2023-01-17T22:05:47.143Z,89.39
2023-01-17T22:06:47.115Z,89.08
2023-01-17T22:07:47.124Z,89.64
2023-01-17T22:08:47.100Z,89.23
2023-01-17T22:09:47.901Z,89.54
2023-01-17T22:10:47.103Z,90.16
2023-01-17T22:11:47.086Z,91.56
2023-01-17T22:12:47.098Z,92.85
2023-01-17T22:13:47.981Z,93.89
2023-01-17T22:14:47.106Z,94.56
2023-01-17T22:15:47.073Z,95.29
2023-01-17T22:16:47.166Z,96.06
2023-01-17T22:17:47.011Z,97.10
